sensor_id;sensor_type;location;lat;lon;timestamp;P1;durP1;ratioP1;P2;durP2;ratioP2
83719;SDS011;73702;49.668;8.544;2023-11-21T00:01:56;22.33;;;3.25;;
83719;SDS011;73702;49.668;8.544;2023-11-21T00:04:23;19.92;;;3.58;;
83719;SDS011;73702;49.668;8.544;2023-11-21T00:06:49;24.08;;;3.72;;
83719;SDS011;73702;49.668;8.544;2023-11-21T00:09:15;42.83;;;5.63;;
83719;SDS011;73702;49.668;8.544;2023-11-21T00:11:42;18.00;;;2.97;;
83719;SDS011;73702;49.668;8.544;2023-11-21T00:14:08;24.48;;;3.58;;
83719;SDS011;73702;49.668;8.544;2023-11-21T00:16:34;34.92;;;5.10;;
83719;SDS011;73702;49.668;8.544;2023-11-21T00:19:00;30.60;;;4.45;;
83719;SDS011;73702;49.668;8.544;2023-11-21T00:21:27;39.53;;;5.20;;
83719;SDS011;73702;49.668;8.544;2023-11-21T00:23:53;21.10;;;3.53;;
83719;SDS011;73702;49.668;8.544;2023-11-21T00:26:19;37.20;;;5.18;;
83719;SDS011;73702;49.668;8.544;2023-11-21T00:28:46;34.05;;;5.03;;
83719;SDS011;73702;49.668;8.544;2023-11-21T00:31:12;19.38;;;3.70;;
83719;SDS011;73702;49.668;8.544;2023-11-21T00:33:38;33.40;;;4.50;;
83719;SDS011;73702;49.668;8.544;2023-11-21T00:36:05;26.02;;;3.67;;
83719;SDS011;73702;49.668;8.544;2023-11-21T00:38:31;40.33;;;5.30;;
83719;SDS011;73702;49.668;8.544;2023-11-21T00:40:57;18.05;;;3.55;;
83719;SDS011;73702;49.668;8.544;2023-11-21T00:43:24;34.80;;;4.80;;
83719;SDS011;73702;49.668;8.544;2023-11-21T00:45:50;23.23;;;3.90;;
83719;SDS011;73702;49.668;8.544;2023-11-21T00:48:16;36.83;;;4.65;;
83719;SDS011;73702;49.668;8.544;2023-11-21T00:50:43;16.05;;;2.90;;
83719;SDS011;73702;49.668;8.544;2023-11-21T00:53:09;24.30;;;3.80;;
83719;SDS011;73702;49.668;8.544;2023-11-21T00:55:36;32.03;;;4.57;;
83719;SDS011;73702;49.668;8.544;2023-11-21T00:58:02;33.08;;;4.72;;
83719;SDS011;73702;49.668;8.544;2023-11-21T01:00:29;31.10;;;4.20;;
83719;SDS011;73702;49.668;8.544;2023-11-21T01:02:55;32.92;;;4.47;;
83719;SDS011;73702;49.668;8.544;2023-11-21T01:05:21;28.23;;;4.53;;
83719;SDS011;73702;49.668;8.544;2023-11-21T01:07:48;24.17;;;4.18;;
83719;SDS011;73702;49.668;8.544;2023-11-21T01:10:14;24.42;;;4.05;;
83719;SDS011;73702;49.668;8.544;2023-11-21T01:12:40;28.23;;;4.32;;
83719;SDS011;73702;49.668;8.544;2023-11-21T01:15:07;20.17;;;3.85;;
83719;SDS011;73702;49.668;8.544;2023-11-21T01:17:33;42.67;;;5.35;;
83719;SDS011;73702;49.668;8.544;2023-11-21T01:20:03;28.05;;;3.72;;
83719;SDS011;73702;49.668;8.544;2023-11-21T01:22:29;24.92;;;3.95;;
83719;SDS011;73702;49.668;8.544;2023-11-21T01:24:56;34.80;;;4.70;;
83719;SDS011;73702;49.668;8.544;2023-11-21T01:27:22;22.35;;;3.42;;
83719;SDS011;73702;49.668;8.544;2023-11-21T01:29:48;28.92;;;3.75;;
83719;SDS011;73702;49.668;8.544;2023-11-21T01:32:14;41.33;;;5.05;;
83719;SDS011;73702;49.668;8.544;2023-11-21T01:34:41;39.33;;;4.40;;
83719;SDS011;73702;49.668;8.544;2023-11-21T01:37:07;23.40;;;3.60;;
83719;SDS011;73702;49.668;8.544;2023-11-21T01:39:33;39.83;;;5.40;;
83719;SDS011;73702;49.668;8.544;2023-11-21T01:42:00;19.63;;;2.80;;
83719;SDS011;73702;49.668;8.544;2023-11-21T01:44:26;24.83;;;3.70;;
83719;SDS011;73702;49.668;8.544;2023-11-21T01:46:52;30.70;;;3.55;;
83719;SDS011;73702;49.668;8.544;2023-11-21T01:49:19;22.90;;;3.28;;
83719;SDS011;73702;49.668;8.544;2023-11-21T01:51:46;24.30;;;3.25;;
83719;SDS011;73702;49.668;8.544;2023-11-21T01:54:14;27.45;;;3.92;;
83719;SDS011;73702;49.668;8.544;2023-11-21T01:56:46;31.45;;;4.28;;
83719;SDS011;73702;49.668;8.544;2023-11-21T01:59:14;38.35;;;5.07;;
83719;SDS011;73702;49.668;8.544;2023-11-21T02:01:41;40.58;;;5.15;;
83719;SDS011;73702;49.668;8.544;2023-11-21T02:04:08;22.67;;;4.00;;
83719;SDS011;73702;49.668;8.544;2023-11-21T02:06:34;28.50;;;4.78;;
83719;SDS011;73702;49.668;8.544;2023-11-21T02:09:00;61.55;;;7.10;;
83719;SDS011;73702;49.668;8.544;2023-11-21T02:11:27;20.40;;;3.28;;
83719;SDS011;73702;49.668;8.544;2023-11-21T02:13:53;26.23;;;3.65;;
83719;SDS011;73702;49.668;8.544;2023-11-21T02:16:19;41.38;;;5.25;;
83719;SDS011;73702;49.668;8.544;2023-11-21T02:18:49;35.15;;;4.75;;
83719;SDS011;73702;49.668;8.544;2023-11-21T02:21:15;26.77;;;3.72;;
83719;SDS011;73702;49.668;8.544;2023-11-21T02:23:42;27.65;;;4.22;;
83719;SDS011;73702;49.668;8.544;2023-11-21T02:26:08;23.48;;;3.60;;
83719;SDS011;73702;49.668;8.544;2023-11-21T02:28:34;34.08;;;4.45;;
83719;SDS011;73702;49.668;8.544;2023-11-21T02:31:01;21.48;;;3.42;;
83719;SDS011;73702;49.668;8.544;2023-11-21T02:33:27;18.77;;;3.60;;
83719;SDS011;73702;49.668;8.544;2023-11-21T02:35:53;18.50;;;3.70;;
83719;SDS011;73702;49.668;8.544;2023-11-21T02:38:22;26.35;;;4.50;;
83719;SDS011;73702;49.668;8.544;2023-11-21T02:40:49;46.72;;;5.72;;
83719;SDS011;73702;49.668;8.544;2023-11-21T02:43:15;26.90;;;4.13;;
83719;SDS011;73702;49.668;8.544;2023-11-21T02:45:42;26.00;;;4.22;;
83719;SDS011;73702;49.668;8.544;2023-11-21T02:48:08;40.58;;;5.95;;
83719;SDS011;73702;49.668;8.544;2023-11-21T02:50:34;31.92;;;4.85;;
83719;SDS011;73702;49.668;8.544;2023-11-21T02:53:01;19.73;;;3.78;;
83719;SDS011;73702;49.668;8.544;2023-11-21T02:55:27;26.02;;;3.63;;
83719;SDS011;73702;49.668;8.544;2023-11-21T02:57:54;33.33;;;4.88;;
83719;SDS011;73702;49.668;8.544;2023-11-21T03:00:20;39.53;;;5.38;;
83719;SDS011;73702;49.668;8.544;2023-11-21T03:02:46;50.25;;;6.57;;
83719;SDS011;73702;49.668;8.544;2023-11-21T03:05:13;42.55;;;5.32;;
83719;SDS011;73702;49.668;8.544;2023-11-21T03:07:39;28.25;;;4.57;;
83719;SDS011;73702;49.668;8.544;2023-11-21T03:10:08;31.58;;;4.75;;
83719;SDS011;73702;49.668;8.544;2023-11-21T03:12:35;20.60;;;3.72;;
83719;SDS011;73702;49.668;8.544;2023-11-21T03:15:01;43.50;;;6.22;;
83719;SDS011;73702;49.668;8.544;2023-11-21T03:17:27;31.15;;;4.90;;
83719;SDS011;73702;49.668;8.544;2023-11-21T03:19:53;32.90;;;4.93;;
83719;SDS011;73702;49.668;8.544;2023-11-21T03:22:20;29.88;;;4.70;;
83719;SDS011;73702;49.668;8.544;2023-11-21T03:24:46;41.50;;;5.93;;
83719;SDS011;73702;49.668;8.544;2023-11-21T03:27:13;20.13;;;3.80;;
83719;SDS011;73702;49.668;8.544;2023-11-21T03:29:39;18.45;;;4.07;;
83719;SDS011;73702;49.668;8.544;2023-11-21T03:32:05;23.73;;;4.22;;
83719;SDS011;73702;49.668;8.544;2023-11-21T03:34:32;28.40;;;4.88;;
83719;SDS011;73702;49.668;8.544;2023-11-21T03:36:58;42.20;;;5.68;;
83719;SDS011;73702;49.668;8.544;2023-11-21T03:39:24;28.38;;;4.40;;
83719;SDS011;73702;49.668;8.544;2023-11-21T03:41:51;31.83;;;5.47;;
83719;SDS011;73702;49.668;8.544;2023-11-21T03:44:17;26.20;;;4.60;;
83719;SDS011;73702;49.668;8.544;2023-11-21T03:46:43;28.05;;;5.05;;
83719;SDS011;73702;49.668;8.544;2023-11-21T03:49:10;21.63;;;4.53;;
83719;SDS011;73702;49.668;8.544;2023-11-21T03:51:36;24.30;;;4.00;;
83719;SDS011;73702;49.668;8.544;2023-11-21T03:54:03;24.75;;;4.65;;
83719;SDS011;73702;49.668;8.544;2023-11-21T03:56:29;17.92;;;3.95;;
83719;SDS011;73702;49.668;8.544;2023-11-21T03:58:55;29.88;;;5.07;;
83719;SDS011;73702;49.668;8.544;2023-11-21T04:01:22;25.90;;;4.38;;
83719;SDS011;73702;49.668;8.544;2023-11-21T04:03:48;42.17;;;6.68;;
83719;SDS011;73702;49.668;8.544;2023-11-21T04:06:15;26.23;;;4.80;;
83719;SDS011;73702;49.668;8.544;2023-11-21T04:08:42;23.60;;;4.60;;
83719;SDS011;73702;49.668;8.544;2023-11-21T04:11:09;21.77;;;4.13;;
83719;SDS011;73702;49.668;8.544;2023-11-21T04:13:35;24.65;;;4.82;;
83719;SDS011;73702;49.668;8.544;2023-11-21T04:16:01;34.60;;;5.72;;
83719;SDS011;73702;49.668;8.544;2023-11-21T04:18:28;19.88;;;4.05;;
83719;SDS011;73702;49.668;8.544;2023-11-21T04:20:54;50.08;;;7.25;;
83719;SDS011;73702;49.668;8.544;2023-11-21T04:23:20;28.90;;;5.10;;
83719;SDS011;73702;49.668;8.544;2023-11-21T04:25:46;54.42;;;7.65;;
83719;SDS011;73702;49.668;8.544;2023-11-21T04:28:13;29.42;;;5.35;;
83719;SDS011;73702;49.668;8.544;2023-11-21T04:30:39;21.60;;;4.47;;
83719;SDS011;73702;49.668;8.544;2023-11-21T04:33:06;19.60;;;4.68;;
83719;SDS011;73702;49.668;8.544;2023-11-21T04:35:32;20.02;;;4.82;;
83719;SDS011;73702;49.668;8.544;2023-11-21T04:37:58;34.50;;;6.18;;
83719;SDS011;73702;49.668;8.544;2023-11-21T04:40:25;25.85;;;5.00;;
83719;SDS011;73702;49.668;8.544;2023-11-21T04:42:51;36.17;;;6.63;;
83719;SDS011;73702;49.668;8.544;2023-11-21T04:45:17;23.17;;;4.85;;
83719;SDS011;73702;49.668;8.544;2023-11-21T04:47:44;25.23;;;5.38;;
83719;SDS011;73702;49.668;8.544;2023-11-21T04:50:10;34.65;;;6.05;;
83719;SDS011;73702;49.668;8.544;2023-11-21T04:52:36;29.88;;;5.43;;
83719;SDS011;73702;49.668;8.544;2023-11-21T04:55:03;32.85;;;5.88;;
83719;SDS011;73702;49.668;8.544;2023-11-21T04:57:29;45.05;;;6.55;;
83719;SDS011;73702;49.668;8.544;2023-11-21T04:59:55;57.45;;;7.38;;
83719;SDS011;73702;49.668;8.544;2023-11-21T05:02:22;25.95;;;4.78;;
83719;SDS011;73702;49.668;8.544;2023-11-21T05:05:01;32.42;;;5.30;;
83719;SDS011;73702;49.668;8.544;2023-11-21T05:07:27;39.38;;;5.90;;
83719;SDS011;73702;49.668;8.544;2023-11-21T05:09:56;31.08;;;5.22;;
83719;SDS011;73702;49.668;8.544;2023-11-21T05:12:23;36.58;;;5.50;;
83719;SDS011;73702;49.668;8.544;2023-11-21T05:14:50;24.17;;;4.35;;
83719;SDS011;73702;49.668;8.544;2023-11-21T05:17:16;41.58;;;6.35;;
83719;SDS011;73702;49.668;8.544;2023-11-21T05:19:43;21.48;;;4.50;;
83719;SDS011;73702;49.668;8.544;2023-11-21T05:22:12;23.80;;;4.30;;
83719;SDS011;73702;49.668;8.544;2023-11-21T05:24:38;28.25;;;5.00;;
83719;SDS011;73702;49.668;8.544;2023-11-21T05:27:05;33.45;;;5.18;;
83719;SDS011;73702;49.668;8.544;2023-11-21T05:29:31;62.03;;;7.97;;
83719;SDS011;73702;49.668;8.544;2023-11-21T05:31:57;47.42;;;6.50;;
83719;SDS011;73702;49.668;8.544;2023-11-21T05:34:24;21.73;;;4.97;;
83719;SDS011;73702;49.668;8.544;2023-11-21T05:36:50;19.45;;;4.80;;
83719;SDS011;73702;49.668;8.544;2023-11-21T05:39:16;25.45;;;5.57;;
83719;SDS011;73702;49.668;8.544;2023-11-21T05:41:43;22.30;;;5.32;;
83719;SDS011;73702;49.668;8.544;2023-11-21T05:46:37;24.58;;;5.47;;
83719;SDS011;73702;49.668;8.544;2023-11-21T05:49:03;36.08;;;6.28;;
83719;SDS011;73702;49.668;8.544;2023-11-21T05:51:29;25.35;;;5.68;;
83719;SDS011;73702;49.668;8.544;2023-11-21T05:53:56;19.35;;;4.82;;
83719;SDS011;73702;49.668;8.544;2023-11-21T05:56:22;19.42;;;5.50;;
83719;SDS011;73702;49.668;8.544;2023-11-21T05:58:48;28.67;;;6.20;;
83719;SDS011;73702;49.668;8.544;2023-11-21T06:01:15;39.25;;;7.70;;
83719;SDS011;73702;49.668;8.544;2023-11-21T06:03:41;31.63;;;7.13;;
83719;SDS011;73702;49.668;8.544;2023-11-21T06:06:07;37.30;;;7.40;;
83719;SDS011;73702;49.668;8.544;2023-11-21T06:08:34;29.15;;;7.15;;
83719;SDS011;73702;49.668;8.544;2023-11-21T06:11:00;35.35;;;8.55;;
83719;SDS011;73702;49.668;8.544;2023-11-21T06:13:26;42.83;;;9.05;;
83719;SDS011;73702;49.668;8.544;2023-11-21T06:15:53;33.25;;;13.88;;
83719;SDS011;73702;49.668;8.544;2023-11-21T06:18:19;41.25;;;16.85;;
83719;SDS011;73702;49.668;8.544;2023-11-21T06:20:46;72.78;;;29.05;;
83719;SDS011;73702;49.668;8.544;2023-11-21T06:23:12;105.35;;;36.97;;
83719;SDS011;73702;49.668;8.544;2023-11-21T06:25:38;71.13;;;28.58;;
83719;SDS011;73702;49.668;8.544;2023-11-21T06:28:05;69.18;;;21.75;;
83719;SDS011;73702;49.668;8.544;2023-11-21T06:30:31;78.15;;;26.95;;
83719;SDS011;73702;49.668;8.544;2023-11-21T06:32:57;44.13;;;17.85;;
83719;SDS011;73702;49.668;8.544;2023-11-21T06:35:24;45.50;;;15.63;;
83719;SDS011;73702;49.668;8.544;2023-11-21T06:37:50;31.55;;;12.45;;
83719;SDS011;73702;49.668;8.544;2023-11-21T06:40:17;55.30;;;10.82;;
83719;SDS011;73702;49.668;8.544;2023-11-21T06:42:43;41.05;;;15.48;;
83719;SDS011;73702;49.668;8.544;2023-11-21T06:45:10;49.17;;;8.38;;
83719;SDS011;73702;49.668;8.544;2023-11-21T06:47:36;38.90;;;12.73;;
83719;SDS011;73702;49.668;8.544;2023-11-21T06:50:03;29.83;;;10.00;;
83719;SDS011;73702;49.668;8.544;2023-11-21T06:52:30;29.48;;;10.07;;
83719;SDS011;73702;49.668;8.544;2023-11-21T06:54:56;31.85;;;10.60;;
83719;SDS011;73702;49.668;8.544;2023-11-21T06:57:23;36.85;;;10.25;;
83719;SDS011;73702;49.668;8.544;2023-11-21T06:59:49;36.25;;;7.75;;
83719;SDS011;73702;49.668;8.544;2023-11-21T07:02:15;41.03;;;8.27;;
83719;SDS011;73702;49.668;8.544;2023-11-21T07:04:42;36.83;;;8.45;;
83719;SDS011;73702;49.668;8.544;2023-11-21T07:07:08;49.72;;;10.13;;
83719;SDS011;73702;49.668;8.544;2023-11-21T07:09:34;27.30;;;7.63;;
83719;SDS011;73702;49.668;8.544;2023-11-21T07:12:01;34.08;;;8.05;;
83719;SDS011;73702;49.668;8.544;2023-11-21T07:14:27;39.28;;;11.10;;
83719;SDS011;73702;49.668;8.544;2023-11-21T07:16:53;43.80;;;9.93;;
83719;SDS011;73702;49.668;8.544;2023-11-21T07:19:20;43.92;;;9.35;;
83719;SDS011;73702;49.668;8.544;2023-11-21T07:21:46;21.08;;;5.00;;
83719;SDS011;73702;49.668;8.544;2023-11-21T07:24:12;40.33;;;6.63;;
83719;SDS011;73702;49.668;8.544;2023-11-21T07:26:39;27.88;;;4.88;;
83719;SDS011;73702;49.668;8.544;2023-11-21T07:29:06;17.45;;;3.38;;
83719;SDS011;73702;49.668;8.544;2023-11-21T07:31:32;18.92;;;3.15;;
83719;SDS011;73702;49.668;8.544;2023-11-21T07:33:58;24.23;;;3.40;;
83719;SDS011;73702;49.668;8.544;2023-11-21T07:36:25;35.17;;;4.38;;
83719;SDS011;73702;49.668;8.544;2023-11-21T07:38:51;29.50;;;3.83;;
83719;SDS011;73702;49.668;8.544;2023-11-21T07:41:18;38.35;;;4.03;;
83719;SDS011;73702;49.668;8.544;2023-11-21T07:43:56;20.67;;;2.63;;
83719;SDS011;73702;49.668;8.544;2023-11-21T07:46:22;26.77;;;3.45;;
83719;SDS011;73702;49.668;8.544;2023-11-21T07:48:49;26.23;;;3.42;;
83719;SDS011;73702;49.668;8.544;2023-11-21T07:51:15;35.63;;;4.45;;
83719;SDS011;73702;49.668;8.544;2023-11-21T07:53:42;16.90;;;2.63;;
83719;SDS011;73702;49.668;8.544;2023-11-21T07:56:08;16.77;;;2.38;;
83719;SDS011;73702;49.668;8.544;2023-11-21T07:58:35;15.90;;;1.80;;
83719;SDS011;73702;49.668;8.544;2023-11-21T08:01:02;17.85;;;2.28;;
83719;SDS011;73702;49.668;8.544;2023-11-21T08:03:28;16.90;;;2.88;;
83719;SDS011;73702;49.668;8.544;2023-11-21T08:05:54;18.20;;;2.53;;
83719;SDS011;73702;49.668;8.544;2023-11-21T08:08:21;49.72;;;5.25;;
83719;SDS011;73702;49.668;8.544;2023-11-21T08:10:47;33.97;;;4.15;;
83719;SDS011;73702;49.668;8.544;2023-11-21T08:13:13;37.70;;;4.95;;
83719;SDS011;73702;49.668;8.544;2023-11-21T08:15:40;14.80;;;2.58;;
83719;SDS011;73702;49.668;8.544;2023-11-21T08:18:06;17.92;;;2.97;;
83719;SDS011;73702;49.668;8.544;2023-11-21T08:20:32;43.33;;;5.03;;
83719;SDS011;73702;49.668;8.544;2023-11-21T08:22:59;32.97;;;4.22;;
83719;SDS011;73702;49.668;8.544;2023-11-21T08:25:25;32.85;;;4.45;;
83719;SDS011;73702;49.668;8.544;2023-11-21T08:27:51;30.13;;;4.22;;
83719;SDS011;73702;49.668;8.544;2023-11-21T08:30:18;32.40;;;4.38;;
83719;SDS011;73702;49.668;8.544;2023-11-21T08:32:44;34.03;;;4.90;;
83719;SDS011;73702;49.668;8.544;2023-11-21T08:35:10;25.20;;;5.03;;
83719;SDS011;73702;49.668;8.544;2023-11-21T08:37:37;21.83;;;5.03;;
83719;SDS011;73702;49.668;8.544;2023-11-21T08:40:04;25.55;;;6.80;;
83719;SDS011;73702;49.668;8.544;2023-11-21T08:42:30;41.35;;;8.60;;
83719;SDS011;73702;49.668;8.544;2023-11-21T08:44:56;27.92;;;7.60;;
83719;SDS011;73702;49.668;8.544;2023-11-21T08:47:23;38.15;;;7.63;;
83719;SDS011;73702;49.668;8.544;2023-11-21T08:49:49;29.83;;;9.30;;
83719;SDS011;73702;49.668;8.544;2023-11-21T08:52:16;49.80;;;12.45;;
83719;SDS011;73702;49.668;8.544;2023-11-21T08:54:44;22.70;;;7.43;;
83719;SDS011;73702;49.668;8.544;2023-11-21T08:57:10;29.58;;;6.95;;
83719;SDS011;73702;49.668;8.544;2023-11-21T08:59:36;26.60;;;6.70;;
83719;SDS011;73702;49.668;8.544;2023-11-21T09:02:03;19.45;;;6.57;;
83719;SDS011;73702;49.668;8.544;2023-11-21T09:04:29;39.90;;;6.40;;
83719;SDS011;73702;49.668;8.544;2023-11-21T09:06:56;40.90;;;8.25;;
83719;SDS011;73702;49.668;8.544;2023-11-21T09:09:22;51.63;;;9.27;;
83719;SDS011;73702;49.668;8.544;2023-11-21T09:11:48;24.52;;;7.22;;
83719;SDS011;73702;49.668;8.544;2023-11-21T09:14:15;26.73;;;6.63;;
83719;SDS011;73702;49.668;8.544;2023-11-21T09:16:41;23.52;;;7.45;;
83719;SDS011;73702;49.668;8.544;2023-11-21T09:19:07;44.72;;;9.18;;
83719;SDS011;73702;49.668;8.544;2023-11-21T09:21:34;59.67;;;9.77;;
83719;SDS011;73702;49.668;8.544;2023-11-21T09:24:00;25.67;;;8.23;;
83719;SDS011;73702;49.668;8.544;2023-11-21T09:26:26;42.83;;;9.60;;
83719;SDS011;73702;49.668;8.544;2023-11-21T09:28:53;42.13;;;8.07;;
83719;SDS011;73702;49.668;8.544;2023-11-21T09:31:19;30.75;;;7.80;;
83719;SDS011;73702;49.668;8.544;2023-11-21T09:33:45;31.60;;;7.93;;
83719;SDS011;73702;49.668;8.544;2023-11-21T09:36:12;35.42;;;8.10;;
83719;SDS011;73702;49.668;8.544;2023-11-21T09:38:38;28.52;;;7.95;;
83719;SDS011;73702;49.668;8.544;2023-11-21T09:41:05;25.25;;;7.40;;
83719;SDS011;73702;49.668;8.544;2023-11-21T09:43:34;42.08;;;8.45;;
83719;SDS011;73702;49.668;8.544;2023-11-21T09:46:01;49.83;;;9.13;;
83719;SDS011;73702;49.668;8.544;2023-11-21T09:48:28;68.78;;;11.48;;
83719;SDS011;73702;49.668;8.544;2023-11-21T09:50:55;28.40;;;7.10;;
83719;SDS011;73702;49.668;8.544;2023-11-21T09:53:21;36.72;;;7.25;;
83719;SDS011;73702;49.668;8.544;2023-11-21T09:55:50;65.65;;;11.13;;
83719;SDS011;73702;49.668;8.544;2023-11-21T09:58:17;59.80;;;11.63;;
83719;SDS011;73702;49.668;8.544;2023-11-21T10:00:44;29.95;;;8.35;;
83719;SDS011;73702;49.668;8.544;2023-11-21T10:03:11;34.00;;;8.23;;
83719;SDS011;73702;49.668;8.544;2023-11-21T10:05:38;153.85;;;18.80;;
83719;SDS011;73702;49.668;8.544;2023-11-21T10:08:08;141.60;;;18.40;;
83719;SDS011;73702;49.668;8.544;2023-11-21T10:10:35;75.15;;;12.48;;
83719;SDS011;73702;49.668;8.544;2023-11-21T10:13:03;35.67;;;8.73;;
83719;SDS011;73702;49.668;8.544;2023-11-21T10:15:30;46.28;;;8.52;;
83719;SDS011;73702;49.668;8.544;2023-11-21T10:17:56;40.38;;;8.00;;
83719;SDS011;73702;49.668;8.544;2023-11-21T10:20:23;33.03;;;7.00;;
83719;SDS011;73702;49.668;8.544;2023-11-21T10:22:49;30.63;;;6.13;;
83719;SDS011;73702;49.668;8.544;2023-11-21T10:25:16;22.63;;;4.60;;
83719;SDS011;73702;49.668;8.544;2023-11-21T10:27:42;44.22;;;8.38;;
83719;SDS011;73702;49.668;8.544;2023-11-21T10:30:09;40.50;;;7.15;;
83719;SDS011;73702;49.668;8.544;2023-11-21T10:32:35;39.00;;;7.80;;
83719;SDS011;73702;49.668;8.544;2023-11-21T10:35:02;20.15;;;5.20;;
83719;SDS011;73702;49.668;8.544;2023-11-21T10:37:28;25.95;;;6.05;;
83719;SDS011;73702;49.668;8.544;2023-11-21T10:39:58;22.80;;;5.68;;
83719;SDS011;73702;49.668;8.544;2023-11-21T10:42:24;35.47;;;8.20;;
83719;SDS011;73702;49.668;8.544;2023-11-21T10:44:51;41.40;;;9.93;;
83719;SDS011;73702;49.668;8.544;2023-11-21T10:47:17;27.60;;;7.35;;
83719;SDS011;73702;49.668;8.544;2023-11-21T10:49:44;50.13;;;10.18;;
83719;SDS011;73702;49.668;8.544;2023-11-21T10:52:10;22.52;;;6.38;;
83719;SDS011;73702;49.668;8.544;2023-11-21T10:54:38;35.53;;;7.50;;
83719;SDS011;73702;49.668;8.544;2023-11-21T10:57:05;26.08;;;6.78;;
83719;SDS011;73702;49.668;8.544;2023-11-21T10:59:32;53.20;;;10.68;;
83719;SDS011;73702;49.668;8.544;2023-11-21T11:01:59;20.65;;;6.68;;
83719;SDS011;73702;49.668;8.544;2023-11-21T11:04:27;34.30;;;9.90;;
83719;SDS011;73702;49.668;8.544;2023-11-21T11:06:54;19.90;;;6.90;;
83719;SDS011;73702;49.668;8.544;2023-11-21T11:09:21;23.15;;;6.22;;
83719;SDS011;73702;49.668;8.544;2023-11-21T11:11:47;23.40;;;6.32;;
83719;SDS011;73702;49.668;8.544;2023-11-21T11:14:14;22.98;;;7.03;;
83719;SDS011;73702;49.668;8.544;2023-11-21T11:16:41;37.10;;;5.88;;
83719;SDS011;73702;49.668;8.544;2023-11-21T11:19:07;20.45;;;4.55;;
83719;SDS011;73702;49.668;8.544;2023-11-21T11:24:14;18.83;;;5.30;;
83719;SDS011;73702;49.668;8.544;2023-11-21T11:26:47;35.00;;;5.88;;
83719;SDS011;73702;49.668;8.544;2023-11-21T11:29:23;25.73;;;5.95;;
83719;SDS011;73702;49.668;8.544;2023-11-21T11:32:13;35.05;;;6.00;;
83719;SDS011;73702;49.668;8.544;2023-11-21T11:34:58;41.80;;;6.25;;
83719;SDS011;73702;49.668;8.544;2023-11-21T11:37:28;20.13;;;4.50;;
83719;SDS011;73702;49.668;8.544;2023-11-21T11:39:54;16.92;;;3.78;;
83719;SDS011;73702;49.668;8.544;2023-11-21T11:42:21;20.67;;;4.57;;
83719;SDS011;73702;49.668;8.544;2023-11-21T11:44:48;33.97;;;6.03;;
83719;SDS011;73702;49.668;8.544;2023-11-21T11:47:15;21.85;;;5.18;;
83719;SDS011;73702;49.668;8.544;2023-11-21T11:54:59;18.23;;;4.93;;
83719;SDS011;73702;49.668;8.544;2023-11-21T11:57:25;16.27;;;4.22;;
83719;SDS011;73702;49.668;8.544;2023-11-21T12:02:33;15.02;;;4.40;;
83719;SDS011;73702;49.668;8.544;2023-11-21T12:05:00;21.15;;;4.65;;
83719;SDS011;73702;49.668;8.544;2023-11-21T12:07:38;21.48;;;4.22;;
83719;SDS011;73702;49.668;8.544;2023-11-21T12:10:05;16.88;;;4.15;;
83719;SDS011;73702;49.668;8.544;2023-11-21T12:12:31;23.70;;;5.13;;
83719;SDS011;73702;49.668;8.544;2023-11-21T12:14:57;19.90;;;4.80;;
83719;SDS011;73702;49.668;8.544;2023-11-21T12:17:24;23.02;;;4.63;;
83719;SDS011;73702;49.668;8.544;2023-11-21T12:19:50;32.45;;;6.00;;
83719;SDS011;73702;49.668;8.544;2023-11-21T12:22:16;16.67;;;3.70;;
83719;SDS011;73702;49.668;8.544;2023-11-21T12:24:43;43.97;;;6.40;;
83719;SDS011;73702;49.668;8.544;2023-11-21T12:27:09;16.83;;;4.20;;
83719;SDS011;73702;49.668;8.544;2023-11-21T12:29:35;16.27;;;3.47;;
83719;SDS011;73702;49.668;8.544;2023-11-21T12:32:02;22.52;;;3.90;;
83719;SDS011;73702;49.668;8.544;2023-11-21T12:34:28;25.02;;;4.55;;
83719;SDS011;73702;49.668;8.544;2023-11-21T12:36:55;32.17;;;5.03;;
83719;SDS011;73702;49.668;8.544;2023-11-21T12:39:22;25.77;;;4.10;;
83719;SDS011;73702;49.668;8.544;2023-11-21T12:41:48;31.75;;;4.78;;
83719;SDS011;73702;49.668;8.544;2023-11-21T12:44:14;25.30;;;4.40;;
83719;SDS011;73702;49.668;8.544;2023-11-21T12:46:42;34.72;;;5.05;;
83719;SDS011;73702;49.668;8.544;2023-11-21T12:49:08;14.38;;;3.28;;
83719;SDS011;73702;49.668;8.544;2023-11-21T12:54:02;24.23;;;3.38;;
83719;SDS011;73702;49.668;8.544;2023-11-21T12:56:28;30.58;;;4.28;;
83719;SDS011;73702;49.668;8.544;2023-11-21T12:58:55;36.47;;;5.03;;
83719;SDS011;73702;49.668;8.544;2023-11-21T13:01:21;35.20;;;5.10;;
83719;SDS011;73702;49.668;8.544;2023-11-21T13:03:51;37.50;;;5.18;;
83719;SDS011;73702;49.668;8.544;2023-11-21T13:06:18;23.05;;;3.17;;
83719;SDS011;73702;49.668;8.544;2023-11-21T13:08:44;37.10;;;4.75;;
83719;SDS011;73702;49.668;8.544;2023-11-21T13:11:11;22.70;;;3.50;;
83719;SDS011;73702;49.668;8.544;2023-11-21T13:13:39;31.83;;;4.38;;
83719;SDS011;73702;49.668;8.544;2023-11-21T13:16:06;29.42;;;4.00;;
83719;SDS011;73702;49.668;8.544;2023-11-21T13:18:32;31.38;;;3.92;;
83719;SDS011;73702;49.668;8.544;2023-11-21T13:21:00;39.90;;;5.25;;
83719;SDS011;73702;49.668;8.544;2023-11-21T13:23:27;24.35;;;4.80;;
83719;SDS011;73702;49.668;8.544;2023-11-21T13:25:53;36.17;;;4.65;;
83719;SDS011;73702;49.668;8.544;2023-11-21T13:28:30;27.65;;;4.05;;
83719;SDS011;73702;49.668;8.544;2023-11-21T13:30:56;54.53;;;5.97;;
83719;SDS011;73702;49.668;8.544;2023-11-21T13:33:23;31.30;;;4.63;;
83719;SDS011;73702;49.668;8.544;2023-11-21T13:35:49;42.72;;;5.28;;
83719;SDS011;73702;49.668;8.544;2023-11-21T13:38:15;26.50;;;4.20;;
83719;SDS011;73702;49.668;8.544;2023-11-21T13:40:46;26.55;;;3.97;;
83719;SDS011;73702;49.668;8.544;2023-11-21T13:43:13;30.98;;;4.45;;
83719;SDS011;73702;49.668;8.544;2023-11-21T13:45:40;24.88;;;3.90;;
83719;SDS011;73702;49.668;8.544;2023-11-21T13:48:11;54.22;;;6.30;;
83719;SDS011;73702;49.668;8.544;2023-11-21T13:50:37;38.35;;;5.72;;
83719;SDS011;73702;49.668;8.544;2023-11-21T13:53:03;40.20;;;5.40;;
83719;SDS011;73702;49.668;8.544;2023-11-21T13:55:30;34.45;;;4.70;;
83719;SDS011;73702;49.668;8.544;2023-11-21T13:57:56;33.35;;;4.97;;
83719;SDS011;73702;49.668;8.544;2023-11-21T14:00:22;40.25;;;5.40;;
83719;SDS011;73702;49.668;8.544;2023-11-21T14:02:49;66.75;;;8.18;;
83719;SDS011;73702;49.668;8.544;2023-11-21T14:05:15;31.95;;;4.70;;
83719;SDS011;73702;49.668;8.544;2023-11-21T14:07:41;27.65;;;3.95;;
83719;SDS011;73702;49.668;8.544;2023-11-21T14:10:08;36.97;;;5.88;;
83719;SDS011;73702;49.668;8.544;2023-11-21T14:12:34;33.92;;;4.97;;
83719;SDS011;73702;49.668;8.544;2023-11-21T14:15:04;40.08;;;5.70;;
83719;SDS011;73702;49.668;8.544;2023-11-21T14:17:31;23.15;;;4.60;;
83719;SDS011;73702;49.668;8.544;2023-11-21T14:19:57;39.38;;;5.47;;
83719;SDS011;73702;49.668;8.544;2023-11-21T14:22:24;34.28;;;4.95;;
83719;SDS011;73702;49.668;8.544;2023-11-21T14:24:50;27.98;;;4.30;;
83719;SDS011;73702;49.668;8.544;2023-11-21T14:27:16;34.35;;;5.80;;
83719;SDS011;73702;49.668;8.544;2023-11-21T14:29:43;31.25;;;4.95;;
83719;SDS011;73702;49.668;8.544;2023-11-21T14:32:09;19.52;;;3.55;;
83719;SDS011;73702;49.668;8.544;2023-11-21T14:34:35;25.00;;;4.82;;
83719;SDS011;73702;49.668;8.544;2023-11-21T14:37:01;56.08;;;7.20;;
83719;SDS011;73702;49.668;8.544;2023-11-21T14:39:28;24.92;;;4.50;;
83719;SDS011;73702;49.668;8.544;2023-11-21T14:41:55;45.50;;;6.07;;
83719;SDS011;73702;49.668;8.544;2023-11-21T14:44:21;31.88;;;4.95;;
83719;SDS011;73702;49.668;8.544;2023-11-21T14:46:47;38.30;;;5.68;;